createdAt,value
2022-12-14T00:00:14.636Z,22.98
2022-12-14T00:03:04.104Z,24.52
2022-12-14T00:05:53.245Z,23.25
2022-12-14T00:08:41.509Z,22.38
2022-12-14T00:11:32.546Z,24.52
2022-12-14T00:14:14.959Z,23.63
2022-12-14T00:17:03.190Z,24.90
2022-12-14T00:19:44.953Z,23.63
2022-12-14T00:22:31.122Z,24.60
2022-12-14T00:25:20.969Z,24.35
2022-12-14T00:28:03.152Z,24.33
2022-12-14T00:30:56.622Z,23.73
2022-12-14T00:33:47.357Z,23.58
2022-12-14T00:36:30.022Z,25.55
2022-12-14T00:39:12.150Z,24.10
2022-12-14T00:42:01.003Z,24.70
2022-12-14T00:44:49.859Z,23.05
2022-12-14T00:47:40.927Z,24.25
2022-12-14T00:50:29.870Z,24.95
2022-12-14T00:53:19.009Z,24.60
2022-12-14T00:56:07.506Z,25.52
2022-12-14T00:58:56.010Z,24.83
2022-12-14T01:01:38.334Z,25.17
2022-12-14T01:04:26.982Z,25.13
2022-12-14T01:07:15.342Z,26.20
2022-12-14T01:09:56.952Z,25.05
2022-12-14T01:12:39.238Z,25.55
2022-12-14T01:15:27.994Z,25.35
2022-12-14T01:18:16.854Z,26.00
2022-12-14T01:20:59.236Z,24.33
2022-12-14T01:23:48.907Z,25.20
2022-12-14T01:26:40.796Z,25.08
2022-12-14T01:29:23.188Z,26.20
2022-12-14T01:32:12.088Z,26.23
2022-12-14T01:35:00.831Z,25.48
2022-12-14T01:37:49.994Z,27.17
2022-12-14T01:40:38.955Z,25.92
2022-12-14T01:43:22.247Z,27.02
2022-12-14T01:46:12.103Z,26.05
2022-12-14T01:48:57.243Z,26.20
2022-12-14T01:51:46.911Z,26.92
2022-12-14T01:54:30.228Z,28.20
2022-12-14T01:57:19.890Z,28.30
2022-12-14T02:00:07.459Z,28.63
2022-12-14T02:03:20.980Z,28.35
2022-12-14T02:06:19.180Z,29.60
2022-12-14T02:09:07.805Z,29.17
2022-12-14T02:11:53.205Z,30.38
2022-12-14T02:14:41.999Z,29.40
2022-12-14T02:17:24.193Z,30.63
2022-12-14T02:20:13.960Z,33.92
2022-12-14T02:23:14.667Z,31.13
2022-12-14T02:26:38.805Z,32.10
2022-12-14T02:29:39.954Z,31.13
2022-12-14T02:32:37.858Z,32.05
2022-12-14T02:35:36.988Z,31.90
2022-12-14T02:38:43.034Z,32.67
2022-12-14T02:41:45.984Z,34.80
2022-12-14T02:44:43.507Z,34.38
2022-12-14T02:48:14.945Z,34.03
2022-12-14T02:51:03.271Z,34.58
2022-12-14T02:54:23.929Z,34.58
2022-12-14T02:57:31.208Z,37.03
2022-12-14T03:00:20.933Z,36.15
2022-12-14T03:03:05.863Z,35.67
2022-12-14T03:05:54.951Z,34.17
2022-12-14T03:08:46.278Z,35.65
2022-12-14T03:11:33.345Z,34.90
2022-12-14T03:14:48.829Z,34.38
2022-12-14T03:17:35.480Z,34.22
2022-12-14T03:20:29.928Z,34.88
2022-12-14T03:23:24.084Z,34.88
2022-12-14T03:26:18.210Z,33.15
2022-12-14T03:29:14.832Z,33.17
2022-12-14T03:32:09.850Z,33.67
2022-12-14T03:34:59.207Z,33.30
2022-12-14T03:37:56.019Z,32.35
2022-12-14T03:41:04.163Z,33.13
2022-12-14T03:44:15.994Z,32.15
2022-12-14T03:47:29.667Z,32.70
2022-12-14T03:50:24.900Z,30.15
2022-12-14T03:53:12.952Z,32.92
2022-12-14T03:56:25.089Z,34.08
2022-12-14T03:59:17.592Z,33.08
2022-12-14T04:02:29.059Z,35.00
2022-12-14T04:05:29.189Z,35.45
2022-12-14T04:08:20.781Z,35.17
2022-12-14T04:11:24.707Z,35.35
2022-12-14T04:17:46.739Z,32.43
2022-12-14T04:20:58.856Z,34.47
2022-12-14T04:24:15.255Z,33.90
2022-12-14T04:27:06.251Z,32.70
2022-12-14T04:30:04.027Z,32.38
2022-12-14T04:32:49.332Z,31.27
2022-12-14T04:35:48.872Z,31.40
2022-12-14T04:38:42.353Z,30.88
2022-12-14T04:41:37.885Z,31.70
2022-12-14T04:44:46.828Z,31.95
2022-12-14T04:47:42.025Z,31.08
2022-12-14T04:50:37.504Z,31.85
2022-12-14T04:53:31.933Z,29.38
2022-12-14T04:56:37.930Z,31.33
2022-12-14T04:59:27.835Z,30.13
2022-12-14T05:02:57.901Z,31.77
2022-12-14T05:06:15.248Z,28.13
2022-12-14T05:09:24.979Z,26.38
2022-12-14T05:12:21.611Z,27.10
2022-12-14T05:15:19.855Z,30.45
2022-12-14T05:18:13.203Z,31.90
2022-12-14T05:20:55.852Z,32.67
2022-12-14T05:23:44.834Z,33.20
2022-12-14T05:26:34.176Z,32.10
2022-12-14T05:29:23.396Z,33.17
2022-12-14T05:32:04.816Z,31.60
2022-12-14T05:34:47.112Z,33.13
2022-12-14T05:37:35.931Z,33.53
2022-12-14T05:40:18.387Z,35.13
2022-12-14T05:43:06.935Z,31.20
2022-12-14T05:45:55.232Z,32.50
2022-12-14T05:48:38.091Z,34.03
2022-12-14T05:51:20.317Z,32.72
2022-12-14T05:54:08.926Z,33.85
2022-12-14T05:56:50.902Z,30.25
2022-12-14T05:59:42.916Z,31.52
2022-12-14T06:02:31.910Z,29.30
2022-12-14T06:05:20.910Z,29.02
2022-12-14T06:08:03.763Z,28.17
2022-12-14T06:10:52.976Z,29.02
2022-12-14T06:13:35.415Z,27.15
2022-12-14T06:16:28.875Z,26.88
2022-12-14T06:19:19.951Z,27.45
2022-12-14T06:22:02.384Z,25.23
2022-12-14T06:24:50.866Z,25.65
2022-12-14T06:27:39.266Z,25.15
2022-12-14T06:30:21.931Z,21.67
2022-12-14T06:33:10.156Z,29.25
2022-12-14T06:35:53.961Z,27.08
2022-12-14T06:38:43.824Z,27.48
2022-12-14T06:41:29.331Z,27.25
2022-12-14T06:44:22.072Z,23.92
2022-12-14T06:47:11.271Z,19.83
2022-12-14T06:49:52.827Z,22.33
2022-12-14T06:52:41.926Z,24.55
2022-12-14T06:55:30.765Z,23.10
2022-12-14T06:58:24.863Z,22.08
2022-12-14T07:01:12.319Z,21.80
2022-12-14T07:04:03.975Z,24.38
2022-12-14T07:06:48.161Z,20.30
2022-12-14T07:09:36.954Z,19.38
2022-12-14T07:12:19.235Z,19.90
2022-12-14T07:15:07.880Z,18.77
2022-12-14T07:17:50.287Z,18.58
2022-12-14T07:20:38.909Z,16.80
2022-12-14T07:23:28.174Z,19.15
2022-12-14T07:26:11.079Z,18.65
2022-12-14T07:29:00.825Z,17.27
2022-12-14T07:31:43.210Z,19.48
2022-12-14T07:34:31.784Z,16.25
2022-12-14T07:37:21.907Z,14.90
2022-12-14T07:40:05.554Z,15.13
2022-12-14T07:42:57.995Z,16.15
2022-12-14T07:45:52.718Z,16.48
2022-12-14T07:48:42.957Z,14.73
2022-12-14T07:51:28.382Z,13.98
2022-12-14T07:54:16.952Z,15.32
2022-12-14T07:56:59.392Z,14.82
2022-12-14T07:59:49.874Z,16.70
2022-12-14T08:02:35.336Z,17.08
2022-12-14T08:05:23.767Z,17.52
2022-12-14T08:08:06.187Z,17.85
2022-12-14T08:10:56.823Z,15.40
2022-12-14T08:13:40.254Z,16.45
2022-12-14T08:16:28.933Z,15.45
2022-12-14T08:19:11.170Z,16.15
2022-12-14T08:21:59.807Z,15.32
2022-12-14T08:24:42.254Z,15.05
2022-12-14T08:27:38.976Z,17.63
2022-12-14T08:30:21.199Z,14.90
2022-12-14T08:33:09.850Z,13.02
2022-12-14T08:35:52.646Z,11.88
2022-12-14T08:38:41.857Z,12.15
2022-12-14T08:41:30.811Z,10.63
2022-12-14T08:44:19.738Z,9.98
2022-12-14T08:47:08.991Z,12.02
2022-12-14T08:49:51.181Z,10.77
2022-12-14T08:52:39.985Z,11.38
2022-12-14T08:55:32.540Z,10.63
2022-12-14T08:58:23.925Z,9.48
2022-12-14T09:01:15.506Z,11.18
2022-12-14T09:04:05.201Z,9.73
2022-12-14T09:06:47.231Z,9.40
2022-12-14T09:09:35.939Z,10.02
2022-12-14T09:12:18.157Z,9.32
2022-12-14T09:15:06.834Z,9.20
2022-12-14T09:17:49.895Z,9.98
2022-12-14T09:20:38.837Z,10.40
2022-12-14T09:23:21.298Z,11.20
2022-12-14T09:26:10.826Z,11.63
2022-12-14T09:29:04.202Z,11.20
2022-12-14T09:31:52.939Z,11.65
2022-12-14T09:34:35.332Z,13.88
2022-12-14T09:37:23.833Z,10.60
2022-12-14T09:40:06.136Z,10.98
2022-12-14T09:43:15.852Z,12.43
2022-12-14T09:46:17.405Z,12.77
2022-12-14T09:49:00.900Z,11.27
2022-12-14T09:51:49.280Z,12.88
2022-12-14T09:54:35.818Z,10.82
2022-12-14T09:57:38.830Z,11.05
2022-12-14T10:00:28.327Z,10.40
2022-12-14T10:03:57.950Z,9.57
2022-12-14T10:06:50.241Z,9.77
2022-12-14T10:10:04.713Z,9.98
2022-12-14T10:12:56.181Z,10.35
2022-12-14T10:15:58.905Z,10.43
2022-12-14T10:19:00.929Z,10.48
2022-12-14T10:21:58.877Z,10.77
2022-12-14T10:25:09.211Z,10.40
2022-12-14T10:28:11.474Z,10.55
2022-12-14T10:30:56.176Z,10.25
2022-12-14T10:33:50.926Z,11.32
2022-12-14T10:37:01.389Z,10.60
2022-12-14T10:40:17.524Z,12.20
2022-12-14T10:43:30.869Z,9.68
2022-12-14T10:46:42.324Z,10.75
2022-12-14T10:49:23.944Z,10.40
2022-12-14T10:52:20.143Z,10.52
2022-12-14T10:55:10.911Z,10.93
2022-12-14T10:58:00.226Z,11.57
2022-12-14T11:00:45.960Z,10.73
2022-12-14T11:03:36.237Z,11.10
2022-12-14T11:06:27.002Z,11.48
2022-12-14T11:09:29.183Z,10.65
2022-12-14T11:12:16.040Z,10.90
2022-12-14T11:15:08.003Z,11.73
2022-12-14T11:17:59.073Z,10.57
2022-12-14T11:21:01.461Z,10.88
2022-12-14T11:23:58.898Z,11.20
2022-12-14T11:26:51.733Z,11.73
2022-12-14T11:29:45.897Z,12.73
2022-12-14T11:32:28.128Z,11.50
2022-12-14T11:35:16.867Z,12.73
2022-12-14T11:38:03.197Z,12.52
2022-12-14T11:40:51.943Z,12.25
2022-12-14T11:43:46.884Z,12.02
2022-12-14T11:46:41.134Z,11.07
2022-12-14T11:49:32.277Z,11.57
2022-12-14T11:52:14.857Z,12.65
2022-12-14T11:55:03.861Z,13.48
2022-12-14T11:58:00.762Z,14.35
2022-12-14T12:01:13.986Z,13.70
2022-12-14T12:04:02.471Z,13.75
2022-12-14T12:06:50.846Z,14.40
2022-12-14T12:09:36.153Z,16.60
2022-12-14T12:12:28.965Z,16.02
2022-12-14T12:15:18.798Z,17.65
2022-12-14T12:18:12.828Z,19.70
2022-12-14T12:21:03.156Z,17.40
2022-12-14T12:24:06.866Z,16.88
2022-12-14T12:30:27.789Z,16.08
2022-12-14T12:33:52.840Z,17.27
2022-12-14T12:36:57.090Z,16.83
2022-12-14T12:39:54.920Z,17.42
2022-12-14T12:42:59.026Z,18.47
2022-12-14T12:48:51.186Z,18.20
2022-12-14T12:51:50.828Z,19.90
2022-12-14T12:54:45.300Z,18.25
2022-12-14T12:57:28.747Z,19.55
2022-12-14T13:00:26.877Z,18.58
2022-12-14T13:03:20.037Z,20.60
2022-12-14T13:06:16.233Z,25.87
2022-12-14T13:09:11.847Z,30.52
2022-12-14T13:12:01.290Z,33.65
2022-12-14T13:14:52.866Z,35.63
2022-12-14T13:17:52.834Z,34.25
2022-12-14T13:20:42.865Z,30.60
2022-12-14T13:23:44.830Z,27.38
2022-12-14T13:27:03.809Z,25.08
2022-12-14T13:30:05.376Z,26.13
2022-12-14T13:32:59.934Z,25.25
2022-12-14T13:35:42.373Z,26.75
2022-12-14T13:38:58.940Z,25.60
2022-12-14T13:42:11.289Z,25.80
2022-12-14T13:45:10.948Z,26.80
2022-12-14T13:47:57.159Z,27.35
2022-12-14T13:50:52.944Z,28.67
2022-12-14T13:53:50.713Z,28.85
2022-12-14T13:56:46.740Z,29.70
2022-12-14T13:59:39.307Z,28.63
2022-12-14T14:02:40.203Z,29.27
2022-12-14T14:05:25.287Z,29.65
2022-12-14T14:08:41.726Z,29.90
2022-12-14T14:11:42.205Z,30.75
2022-12-14T14:15:00.780Z,33.40
2022-12-14T14:18:05.921Z,37.13
2022-12-14T14:20:58.630Z,37.70
2022-12-14T14:23:49.824Z,40.60
2022-12-14T14:26:42.327Z,41.28
2022-12-14T14:29:34.794Z,44.05
2022-12-14T14:32:53.999Z,43.25
2022-12-14T14:35:43.774Z,44.78
2022-12-14T14:38:36.212Z,41.42
2022-12-14T14:41:22.933Z,42.13
2022-12-14T14:44:09.257Z,43.25
2022-12-14T14:47:07.426Z,43.40
2022-12-14T14:50:08.812Z,44.22
2022-12-14T14:53:19.129Z,45.17
2022-12-14T14:56:38.867Z,43.78
2022-12-14T14:59:27.864Z,45.67
2022-12-14T15:02:29.992Z,44.22
2022-12-14T15:08:33.320Z,45.83
2022-12-14T15:11:31.849Z,51.70
2022-12-14T15:14:33.286Z,53.45
2022-12-14T15:17:33.826Z,54.35
2022-12-14T15:20:30.988Z,52.75
2022-12-14T15:23:23.915Z,51.60
2022-12-14T15:26:17.228Z,51.77
2022-12-14T15:29:07.885Z,52.57
2022-12-14T15:31:58.923Z,50.35
2022-12-14T15:35:13.869Z,47.35
2022-12-14T15:38:03.149Z,49.63
2022-12-14T15:41:02.768Z,45.50
2022-12-14T15:43:55.048Z,46.72
2022-12-14T15:46:48.878Z,45.28
2022-12-14T15:49:31.187Z,46.00
2022-12-14T15:52:19.919Z,45.70
2022-12-14T15:55:08.911Z,46.50
2022-12-14T15:57:51.386Z,45.92
2022-12-14T16:00:40.929Z,45.67
2022-12-14T16:03:43.521Z,45.22
2022-12-14T16:06:34.872Z,44.28
2022-12-14T16:09:36.249Z,44.58
2022-12-14T16:12:45.172Z,43.33
2022-12-14T16:15:42.705Z,46.13
2022-12-14T16:18:32.776Z,47.47
2022-12-14T16:21:36.873Z,45.58
2022-12-14T16:24:32.119Z,45.28
2022-12-14T16:27:26.812Z,50.80
2022-12-14T16:30:26.306Z,45.65
2022-12-14T16:33:24.749Z,50.65
2022-12-14T16:36:19.254Z,49.00
2022-12-14T16:39:07.796Z,48.53
2022-12-14T16:41:53.023Z,49.22
2022-12-14T16:44:44.848Z,49.90
2022-12-14T16:48:02.912Z,49.38
2022-12-14T16:50:58.091Z,61.58
2022-12-14T16:53:41.866Z,65.03
2022-12-14T16:56:27.340Z,59.03
2022-12-14T16:59:21.962Z,54.85
2022-12-14T17:02:17.604Z,54.92
2022-12-14T17:05:00.812Z,54.60
2022-12-14T17:07:48.214Z,52.97
2022-12-14T17:10:40.878Z,53.17
2022-12-14T17:13:23.212Z,56.58
2022-12-14T17:16:19.850Z,56.83
2022-12-14T17:19:03.862Z,59.90
2022-12-14T17:21:52.893Z,60.78
2022-12-14T17:24:45.804Z,61.95
2022-12-14T17:27:37.854Z,64.80
2022-12-14T17:30:29.175Z,67.40
2022-12-14T17:33:11.899Z,66.53
2022-12-14T17:35:56.237Z,67.53
2022-12-14T17:38:46.845Z,65.35
2022-12-14T17:41:29.283Z,66.03
2022-12-14T17:44:17.852Z,65.65
2022-12-14T17:47:13.709Z,69.25
2022-12-14T17:50:02.805Z,70.43
2022-12-14T17:52:45.124Z,72.22
2022-12-14T17:55:37.833Z,72.20
2022-12-14T17:58:27.797Z,76.13
2022-12-14T18:01:11.227Z,73.63
2022-12-14T18:03:59.945Z,74.05
2022-12-14T18:06:49.285Z,68.32
2022-12-14T18:09:31.832Z,69.55
2022-12-14T18:12:25.179Z,73.43
2022-12-14T18:15:07.273Z,74.78
2022-12-14T18:17:56.848Z,70.75
2022-12-14T18:20:46.771Z,67.57
2022-12-14T18:23:39.092Z,67.78
2022-12-14T18:26:27.921Z,66.57
2022-12-14T18:29:17.570Z,67.80
2022-12-14T18:32:00.974Z,65.50
2022-12-14T18:34:49.138Z,65.75
2022-12-14T18:37:32.889Z,65.18
2022-12-14T18:40:17.174Z,68.28
2022-12-14T18:43:05.945Z,68.35
2022-12-14T18:46:10.703Z,69.47
2022-12-14T18:49:00.857Z,68.53
2022-12-14T18:51:43.309Z,69.25
2022-12-14T18:54:31.931Z,72.93
2022-12-14T18:57:14.205Z,70.72
2022-12-14T19:00:02.896Z,74.10
2022-12-14T19:02:51.966Z,75.75
2022-12-14T19:05:34.191Z,82.82
2022-12-14T19:08:23.763Z,127.75
2022-12-14T19:11:36.233Z,110.90
2022-12-14T19:14:18.793Z,81.75
2022-12-14T19:20:05.289Z,71.97
2022-12-14T19:22:55.844Z,68.22
2022-12-14T19:25:45.463Z,72.07
2022-12-14T19:28:32.921Z,71.00
2022-12-14T19:31:24.202Z,71.63
2022-12-14T19:34:09.491Z,69.45
2022-12-14T19:36:53.047Z,69.15
2022-12-14T19:39:43.413Z,67.00
2022-12-14T19:42:34.538Z,65.03
2022-12-14T19:45:19.101Z,64.43
2022-12-14T19:48:12.871Z,64.85
2022-12-14T19:50:55.723Z,66.13
2022-12-14T19:53:45.839Z,63.85
2022-12-14T19:56:28.168Z,64.63
2022-12-14T19:59:16.858Z,63.03
2022-12-14T20:02:06.059Z,61.47
2022-12-14T20:04:54.183Z,64.32
2022-12-14T20:07:43.395Z,62.92
2022-12-14T20:10:33.138Z,69.63
2022-12-14T20:13:15.809Z,70.45
2022-12-14T20:16:06.252Z,71.35
2022-12-14T20:18:48.939Z,57.88
2022-12-14T20:21:37.457Z,55.70
2022-12-14T20:24:21.845Z,53.72
2022-12-14T20:27:05.433Z,53.63
2022-12-14T20:29:55.856Z,52.53
2022-12-14T20:32:38.910Z,51.92
2022-12-14T20:35:28.846Z,59.85
2022-12-14T20:38:11.260Z,73.18
2022-12-14T20:40:59.935Z,70.53
2022-12-14T20:43:45.102Z,61.10
2022-12-14T20:46:42.898Z,56.88
2022-12-14T20:49:33.938Z,55.40
2022-12-14T20:52:15.785Z,53.75
2022-12-14T20:54:58.015Z,53.00
2022-12-14T20:57:46.723Z,51.97
2022-12-14T21:00:36.152Z,50.85
2022-12-14T21:03:18.819Z,49.00
2022-12-14T21:06:09.044Z,48.28
2022-12-14T21:09:09.782Z,46.80
2022-12-14T21:12:17.744Z,48.38
2022-12-14T21:15:04.393Z,48.05
2022-12-14T21:17:52.736Z,46.10
2022-12-14T21:20:41.657Z,47.15
2022-12-14T21:23:30.241Z,46.78
2022-12-14T21:26:13.691Z,48.22
2022-12-14T21:29:03.045Z,45.75
2022-12-14T21:31:46.779Z,46.15
2022-12-14T21:34:29.206Z,47.45
2022-12-14T21:37:10.782Z,47.25
2022-12-14T21:39:55.269Z,45.75
2022-12-14T21:42:44.721Z,47.67
2022-12-14T21:45:27.229Z,44.22
2022-12-14T21:48:16.650Z,45.38
2022-12-14T21:50:59.010Z,45.78
2022-12-14T21:54:05.678Z,44.72
2022-12-14T21:57:08.662Z,44.55
2022-12-14T21:59:57.818Z,44.08
2022-12-14T22:02:54.911Z,42.67
2022-12-14T22:05:46.684Z,43.33
2022-12-14T22:08:35.719Z,41.67
2022-12-14T22:11:24.121Z,45.90
2022-12-14T22:14:06.816Z,45.03
2022-12-14T22:16:56.807Z,44.88
2022-12-14T22:19:46.807Z,44.03
2022-12-14T22:22:35.723Z,43.20
2022-12-14T22:25:18.060Z,42.80
2022-12-14T22:28:06.706Z,44.03
2022-12-14T22:30:55.782Z,42.63
2022-12-14T22:33:37.921Z,41.95
2022-12-14T22:36:27.171Z,43.83
2022-12-14T22:39:10.359Z,41.63
2022-12-14T22:41:58.762Z,42.30
2022-12-14T22:44:41.400Z,43.55
2022-12-14T22:47:30.758Z,43.15
2022-12-14T22:50:13.287Z,42.50
2022-12-14T22:53:01.760Z,41.90
2022-12-14T22:55:46.063Z,41.25
2022-12-14T22:58:40.831Z,39.67
2022-12-14T23:01:30.110Z,40.30
2022-12-14T23:04:14.887Z,39.65
2022-12-14T23:06:57.024Z,38.67
2022-12-14T23:10:03.867Z,37.40
2022-12-14T23:13:10.302Z,38.88
2022-12-14T23:16:10.719Z,38.72
2022-12-14T23:19:17.752Z,37.42
2022-12-14T23:22:18.478Z,37.47
2022-12-14T23:25:25.701Z,39.05
2022-12-14T23:28:33.682Z,37.35
2022-12-14T23:31:34.198Z,37.53
2022-12-14T23:34:40.701Z,35.22
2022-12-14T23:37:41.096Z,34.10
2022-12-14T23:40:47.698Z,35.15
2022-12-14T23:43:48.301Z,34.05
2022-12-14T23:46:54.671Z,33.20
2022-12-14T23:50:01.822Z,31.90
2022-12-14T23:53:02.480Z,32.83
2022-12-14T23:56:09.749Z,32.50
2022-12-14T23:59:13.924Z,34.95
